Time;durP1;ratioP1;P1;durP2;ratioP2;P2;SDS_P1;SDS_P2;PMS_P1;PMS_P2;Temp;Humidity;BMP_temperature;BMP_pressure;BME280_temperature;BME280_humidity;BME280_pressure;Samples;Min_cycle;Max_cycle;Signal;HPM_P1;HPM_P2
2022/12/27 00:00:07;;;;;;;3.38;0.98;;;;;;;;;;4956770;29;20055;-79
2022/12/27 00:02:37;;;;;;;2.88;1.00;;;;;;;;;;4940156;29;20047;-79
2022/12/27 00:05:05;;;;;;;2.03;0.85;;;;;;;;;;4957420;29;20051;-80
2022/12/27 00:07:31;;;;;;;1.83;0.70;;;;;;;;;;4925368;29;20063;-80
2022/12/27 00:09:58;;;;;;;2.72;0.88;;;;;;;;;;4971726;28;20125;-79
2022/12/27 00:12:25;;;;;;;1.13;0.60;;;;;;;;;;4924464;29;20051;-79
2022/12/27 00:14:52;;;;;;;6.18;0.90;;;;;;;;;;4955728;29;20130;-78
2022/12/27 00:17:19;;;;;;;3.28;1.23;;;;;;;;;;4936121;29;20056;-79
2022/12/27 00:19:46;;;;;;;1.55;0.70;;;;;;;;;;4928041;29;20133;-78
2022/12/27 00:22:12;;;;;;;3.60;0.80;;;;;;;;;;4924708;29;20101;-78
2022/12/27 00:24:39;;;;;;;2.05;1.20;;;;;;;;;;4935779;29;20120;-78
2022/12/27 00:27:06;;;;;;;3.15;0.95;;;;;;;;;;4917197;29;20081;-78
2022/12/27 00:29:33;;;;;;;3.22;0.95;;;;;;;;;;4930509;29;20130;-78
2022/12/27 00:31:59;;;;;;;3.55;1.10;;;;;;;;;;4954897;28;20183;-79
2022/12/27 00:34:26;;;;;;;1.95;0.80;;;;;;;;;;4960373;28;20051;-78
2022/12/27 00:36:53;;;;;;;1.80;0.80;;;;;;;;;;4934617;29;20594;-78
2022/12/27 00:39:20;;;;;;;3.78;0.85;;;;;;;;;;4920061;29;20427;-78
2022/12/27 00:41:46;;;;;;;3.78;1.00;;;;;;;;;;4942654;28;20130;-78
2022/12/27 00:44:13;;;;;;;4.00;0.80;;;;;;;;;;4922248;29;20051;-78
2022/12/27 00:46:40;;;;;;;2.92;0.80;;;;;;;;;;4922120;29;20138;-79
2022/12/27 00:49:07;;;;;;;3.38;1.50;;;;;;;;;;4955142;29;20478;-78
2022/12/27 00:51:33;;;;;;;2.45;1.17;;;;;;;;;;4938347;29;20066;-79
2022/12/27 00:54:00;;;;;;;3.38;1.17;;;;;;;;;;4953844;29;20582;-78
2022/12/27 00:56:28;;;;;;;1.52;0.85;;;;;;;;;;4950513;28;20142;-78
2022/12/27 00:58:58;;;;;;;2.10;1.05;;;;;;;;;;4952763;29;20059;-79
2022/12/27 01:01:26;;;;;;;1.27;0.70;;;;;;;;;;4922358;29;20055;-79
2022/12/27 01:03:53;;;;;;;2.25;1.02;;;;;;;;;;4938944;29;20043;-79
2022/12/27 01:06:22;;;;;;;4.85;1.38;;;;;;;;;;4939162;29;20055;-79
2022/12/27 01:08:49;;;;;;;4.32;0.93;;;;;;;;;;4925745;29;20059;-79
2022/12/27 01:11:17;;;;;;;1.50;0.73;;;;;;;;;;4952882;29;20057;-78
2022/12/27 01:13:44;;;;;;;8.85;1.40;;;;;;;;;;4928403;29;20098;-78
2022/12/27 01:16:15;;;;;;;4.90;0.80;;;;;;;;;;4938012;29;20055;-78
2022/12/27 01:18:43;;;;;;;2.97;0.80;;;;;;;;;;4954360;28;20058;-78
2022/12/27 01:21:13;;;;;;;3.38;0.63;;;;;;;;;;4937945;29;20053;-78
2022/12/27 01:23:40;;;;;;;3.80;0.80;;;;;;;;;;4918716;29;20119;-79
2022/12/27 01:26:12;;;;;;;2.83;0.70;;;;;;;;;;4964425;28;20162;-79
2022/12/27 01:28:39;;;;;;;2.85;0.70;;;;;;;;;;4932823;29;20101;-80
2022/12/27 01:31:20;;;;;;;1.83;0.68;;;;;;;;;;4923506;29;20051;-78
2022/12/27 01:33:47;;;;;;;3.28;0.73;;;;;;;;;;4937372;29;20067;-78
2022/12/27 01:36:20;;;;;;;2.08;0.63;;;;;;;;;;4936725;29;20463;-78
2022/12/27 01:38:47;;;;;;;2.17;0.70;;;;;;;;;;4921250;29;20530;-79
2022/12/27 01:44:32;;;;;;;1.50;0.88;;;;;;;;;;4963998;28;20063;-79
2022/12/27 01:46:59;;;;;;;1.52;0.75;;;;;;;;;;4952262;29;20051;-79
2022/12/27 01:49:26;;;;;;;4.07;1.10;;;;;;;;;;4921014;29;20101;-78
2022/12/27 01:51:53;;;;;;;1.67;0.60;;;;;;;;;;4937089;28;20087;-78
2022/12/27 01:54:19;;;;;;;5.32;1.13;;;;;;;;;;4936652;29;20058;-79
2022/12/27 01:56:46;;;;;;;5.50;1.45;;;;;;;;;;4943425;29;20086;-78
2022/12/27 01:59:13;;;;;;;2.58;1.45;;;;;;;;;;4953047;29;20147;-79
2022/12/27 02:01:43;;;;;;;5.80;0.88;;;;;;;;;;4937408;28;20061;-78
2022/12/27 02:04:13;;;;;;;3.00;0.80;;;;;;;;;;4937460;29;20055;-78
2022/12/27 02:06:40;;;;;;;1.73;1.33;;;;;;;;;;4952767;28;20132;-78
2022/12/27 02:09:35;;;;;;;1.52;0.90;;;;;;;;;;4921337;29;20101;-78
2022/12/27 02:12:03;;;;;;;2.08;1.05;;;;;;;;;;4935569;28;20055;-78
2022/12/27 02:14:39;;;;;;;1.35;0.70;;;;;;;;;;4922272;29;20130;-78
2022/12/27 02:17:15;;;;;;;1.42;0.77;;;;;;;;;;4935863;29;20047;-78
2022/12/27 02:19:49;;;;;;;2.05;0.77;;;;;;;;;;4936819;29;20054;-78
2022/12/27 02:22:21;;;;;;;2.88;1.10;;;;;;;;;;4935105;29;20047;-78
2022/12/27 02:25:36;;;;;;;2.70;0.93;;;;;;;;;;4948302;28;20393;-78
2022/12/27 02:28:17;;;;;;;2.53;0.90;;;;;;;;;;4898913;29;20059;-78
2022/12/27 02:30:44;;;;;;;1.08;0.88;;;;;;;;;;4945920;29;20052;-78
2022/12/27 02:33:14;;;;;;;1.63;0.88;;;;;;;;;;4950305;28;20134;-78
2022/12/27 02:35:43;;;;;;;1.65;1.10;;;;;;;;;;4929151;29;20130;-78
2022/12/27 02:38:13;;;;;;;2.60;1.10;;;;;;;;;;4921241;29;20377;-78
2022/12/27 02:55:26;;;;;;;2.35;1.10;;;;;;;;;;4920174;29;20063;-78
2022/12/27 02:58:05;;;;;;;1.58;1.00;;;;;;;;;;4904863;29;20157;-79
2022/12/27 03:03:43;;;;;;;3.80;0.77;;;;;;;;;;4960536;28;20146;-78
2022/12/27 03:06:39;;;;;;;2.95;1.80;;;;;;;;;;4952926;28;20106;-78
2022/12/27 03:09:09;;;;;;;0.73;0.63;;;;;;;;;;4937826;29;20058;-79
2022/12/27 03:17:28;;;;;;;5.38;0.90;;;;;;;;;;4944565;29;20058;-78
2022/12/27 03:25:30;;;;;;;2.47;0.80;;;;;;;;;;4942620;29;20071;-80
2022/12/27 03:34:03;;;;;;;1.48;0.80;;;;;;;;;;4953233;28;20074;-80
2022/12/27 03:39:20;;;;;;;2.08;0.70;;;;;;;;;;4943255;29;20122;-79
2022/12/27 03:44:38;;;;;;;2.15;0.45;;;;;;;;;;4942049;29;20051;-79
2022/12/27 03:47:28;;;;;;;2.90;0.90;;;;;;;;;;4936302;29;20500;-79
2022/12/27 03:50:03;;;;;;;3.42;0.85;;;;;;;;;;4939404;29;20534;-79
2022/12/27 03:52:40;;;;;;;3.08;1.40;;;;;;;;;;4941858;29;20055;-79
2022/12/27 03:55:07;;;;;;;3.63;0.70;;;;;;;;;;4941795;29;20118;-79
2022/12/27 03:57:34;;;;;;;3.92;1.02;;;;;;;;;;4939849;29;20070;-78
2022/12/27 04:00:01;;;;;;;1.05;0.82;;;;;;;;;;4940206;29;20542;-81
2022/12/27 04:02:27;;;;;;;1.30;0.80;;;;;;;;;;4949898;28;20060;-81
2022/12/27 04:04:54;;;;;;;3.60;0.90;;;;;;;;;;4957342;29;20051;-81
2022/12/27 04:07:21;;;;;;;3.92;0.98;;;;;;;;;;4956250;29;20056;-81
2022/12/27 04:34:42;;;;;;;3.92;1.20;;;;;;;;;;4954668;28;20063;-79
2022/12/27 04:37:11;;;;;;;3.50;0.98;;;;;;;;;;4924039;29;20145;-79
2022/12/27 04:39:38;;;;;;;2.25;0.93;;;;;;;;;;4938865;29;20496;-79
2022/12/27 04:56:02;;;;;;;4.32;1.00;;;;;;;;;;4969116;28;20115;-78
2022/12/27 04:58:29;;;;;;;2.17;1.10;;;;;;;;;;4943827;28;20057;-78
2022/12/27 05:03:44;;;;;;;3.95;2.20;;;;;;;;;;4938604;29;20424;-78
2022/12/27 05:06:12;;;;;;;7.47;4.50;;;;;;;;;;4945667;28;20886;-78
2022/12/27 05:14:13;;;;;;;5.50;1.88;;;;;;;;;;4953524;29;20062;-78
2022/12/27 05:16:41;;;;;;;2.72;1.42;;;;;;;;;;4938584;29;20089;-78
2022/12/27 05:19:09;;;;;;;2.58;1.40;;;;;;;;;;4940959;29;20602;-79
2022/12/27 05:25:33;;;;;;;2.55;2.10;;;;;;;;;;4933839;29;20055;-79
2022/12/27 05:27:14;;;;;;;43.55;30.27;;;;;;;;;;4934386;29;20052;-78
2022/12/27 05:29:41;;;;;;;45.35;40.40;;;;;;;;;;4926167;28;20039;-78
2022/12/27 05:32:08;;;;;;;37.90;33.78;;;;;;;;;;4942981;28;20057;-79
2022/12/27 05:34:39;;;;;;;9.52;6.13;;;;;;;;;;4953156;29;20106;-78
2022/12/27 05:37:06;;;;;;;3.97;1.92;;;;;;;;;;4955505;29;20058;-77
2022/12/27 05:39:32;;;;;;;3.63;1.70;;;;;;;;;;4962212;28;20099;-78
2022/12/27 05:41:59;;;;;;;2.95;1.60;;;;;;;;;;4978359;28;20505;-78
2022/12/27 05:44:26;;;;;;;3.60;1.00;;;;;;;;;;4978515;28;20062;-79
2022/12/27 05:46:53;;;;;;;1.92;1.10;;;;;;;;;;4961655;28;20075;-79
2022/12/27 05:49:20;;;;;;;2.42;1.10;;;;;;;;;;4942580;29;20062;-79
2022/12/27 05:51:47;;;;;;;2.13;1.17;;;;;;;;;;4975649;28;20035;-79
2022/12/27 05:54:14;;;;;;;2.08;1.10;;;;;;;;;;4978145;28;20031;-79
2022/12/27 05:56:40;;;;;;;4.43;1.50;;;;;;;;;;4977791;28;20095;-78
2022/12/27 05:59:07;;;;;;;4.15;1.15;;;;;;;;;;4973527;29;20082;-78
2022/12/27 06:01:34;;;;;;;1.10;1.00;;;;;;;;;;4976660;28;20047;-78
2022/12/27 06:04:01;;;;;;;2.38;1.17;;;;;;;;;;4967769;29;20118;-78
2022/12/27 06:06:28;;;;;;;3.72;1.65;;;;;;;;;;4951333;29;20059;-78
2022/12/27 06:08:55;;;;;;;2.15;1.30;;;;;;;;;;4967866;29;20089;-78
2022/12/27 06:11:21;;;;;;;5.03;1.48;;;;;;;;;;4943011;29;20062;-77
2022/12/27 06:13:51;;;;;;;2.05;1.10;;;;;;;;;;4945332;29;20056;-77
2022/12/27 06:16:18;;;;;;;2.30;1.20;;;;;;;;;;4943929;29;20059;-77
2022/12/27 06:18:45;;;;;;;2.95;1.33;;;;;;;;;;4902145;29;20512;-78
2022/12/27 06:21:15;;;;;;;3.35;1.30;;;;;;;;;;4910162;29;20066;-78
2022/12/27 06:23:45;;;;;;;3.35;1.08;;;;;;;;;;4936039;29;20059;-78
2022/12/27 06:26:20;;;;;;;4.53;1.50;;;;;;;;;;4936448;29;20058;-77
2022/12/27 06:28:48;;;;;;;3.13;1.92;;;;;;;;;;4951645;29;20063;-78
2022/12/27 06:31:16;;;;;;;2.78;1.30;;;;;;;;;;4952412;29;20106;-78
2022/12/27 06:33:43;;;;;;;5.70;1.33;;;;;;;;;;4920155;29;20061;-78
2022/12/27 06:36:12;;;;;;;5.75;1.30;;;;;;;;;;4936007;29;20146;-78
2022/12/27 06:38:39;;;;;;;2.13;1.00;;;;;;;;;;4920088;29;20061;-79
2022/12/27 06:41:08;;;;;;;3.88;1.30;;;;;;;;;;4952022;29;20058;-78
2022/12/27 06:43:35;;;;;;;3.03;1.30;;;;;;;;;;4952024;28;20130;-79
2022/12/27 06:46:06;;;;;;;4.95;1.33;;;;;;;;;;4951459;29;20508;-77
2022/12/27 06:48:39;;;;;;;1.35;1.23;;;;;;;;;;4952178;29;20500;-79
2022/12/27 06:51:07;;;;;;;3.42;1.42;;;;;;;;;;4967424;28;20074;-79
2022/12/27 06:53:35;;;;;;;3.65;1.48;;;;;;;;;;4936777;29;20396;-77
2022/12/27 06:56:03;;;;;;;4.13;2.08;;;;;;;;;;4951322;29;20732;-76
2022/12/27 06:58:30;;;;;;;3.17;1.50;;;;;;;;;;4919215;29;20055;-76
2022/12/27 07:00:57;;;;;;;6.32;2.60;;;;;;;;;;4934832;29;20059;-77
2022/12/27 07:03:24;;;;;;;2.65;1.80;;;;;;;;;;4919671;29;20087;-76
2022/12/27 07:05:50;;;;;;;5.13;2.05;;;;;;;;;;4950957;29;20070;-78
2022/12/27 07:08:17;;;;;;;6.07;1.85;;;;;;;;;;4951668;29;20063;-78
2022/12/27 07:10:44;;;;;;;2.80;1.70;;;;;;;;;;4920549;29;20055;-79
2022/12/27 07:13:10;;;;;;;3.50;1.45;;;;;;;;;;4935480;29;20622;-78
2022/12/27 07:15:37;;;;;;;3.33;1.48;;;;;;;;;;4921573;29;20067;-79
2022/12/27 07:18:04;;;;;;;3.17;1.42;;;;;;;;;;4936576;29;20063;-78
2022/12/27 07:20:31;;;;;;;4.15;1.45;;;;;;;;;;4921468;29;20110;-79
2022/12/27 07:22:58;;;;;;;5.47;1.58;;;;;;;;;;4939176;29;20063;-79
2022/12/27 07:25:25;;;;;;;3.75;1.40;;;;;;;;;;4953530;28;20082;-79
2022/12/27 07:27:52;;;;;;;3.30;1.50;;;;;;;;;;4937206;29;20059;-79
2022/12/27 07:30:19;;;;;;;5.90;2.03;;;;;;;;;;4921334;29;20051;-78
2022/12/27 07:32:45;;;;;;;3.03;1.65;;;;;;;;;;4938598;29;20051;-79
2022/12/27 07:35:12;;;;;;;5.35;1.63;;;;;;;;;;4943447;29;20100;-79
2022/12/27 07:37:39;;;;;;;6.03;2.15;;;;;;;;;;4953866;29;20051;-80
2022/12/27 07:40:06;;;;;;;4.20;1.88;;;;;;;;;;4957595;29;20056;-79
2022/12/27 07:42:33;;;;;;;5.05;1.83;;;;;;;;;;4957315;29;20061;-80
2022/12/27 07:45:00;;;;;;;4.22;2.30;;;;;;;;;;4940263;29;20046;-80
2022/12/27 07:47:27;;;;;;;5.88;2.25;;;;;;;;;;4930549;29;20059;-80
2022/12/27 07:49:53;;;;;;;4.28;2.42;;;;;;;;;;4963866;29;20085;-80
2022/12/27 07:52:20;;;;;;;5.88;2.00;;;;;;;;;;4941237;29;20054;-79
2022/12/27 07:54:47;;;;;;;3.95;1.98;;;;;;;;;;4957188;29;20078;-79
2022/12/27 07:57:13;;;;;;;4.45;2.28;;;;;;;;;;4956777;29;20062;-80
2022/12/27 07:59:40;;;;;;;5.15;2.00;;;;;;;;;;4940632;29;20428;-81
2022/12/27 08:02:08;;;;;;;6.28;1.48;;;;;;;;;;4938836;29;20073;-76
2022/12/27 08:04:37;;;;;;;4.88;1.83;;;;;;;;;;4941099;29;20055;-77
2022/12/27 08:07:14;;;;;;;5.10;1.88;;;;;;;;;;4938238;29;20047;-76
2022/12/27 08:09:42;;;;;;;2.80;2.08;;;;;;;;;;4936662;28;20082;-76
2022/12/27 08:12:09;;;;;;;3.55;1.52;;;;;;;;;;4938009;29;20059;-77
2022/12/27 08:14:36;;;;;;;4.70;1.90;;;;;;;;;;4938592;29;20066;-77
2022/12/27 08:17:22;;;;;;;1.83;1.38;;;;;;;;;;4938496;29;20051;-77
2022/12/27 08:19:52;;;;;;;4.97;1.92;;;;;;;;;;4932926;28;20082;-73
2022/12/27 08:22:20;;;;;;;3.20;1.60;;;;;;;;;;4964823;28;20799;-72
2022/12/27 08:24:47;;;;;;;2.13;1.30;;;;;;;;;;4929141;29;20062;-74
2022/12/27 08:27:21;;;;;;;2.35;1.27;;;;;;;;;;4936718;29;20051;-77
2022/12/27 08:29:49;;;;;;;4.45;1.85;;;;;;;;;;4936703;29;20203;-76
2022/12/27 08:32:15;;;;;;;3.28;1.50;;;;;;;;;;4944224;29;20051;-74
2022/12/27 08:34:42;;;;;;;2.47;1.67;;;;;;;;;;4952513;29;20058;-75
2022/12/27 08:37:09;;;;;;;2.60;1.30;;;;;;;;;;4952822;28;20055;-75
2022/12/27 08:39:36;;;;;;;3.10;1.52;;;;;;;;;;4952519;29;20150;-80
2022/12/27 08:42:03;;;;;;;2.72;1.40;;;;;;;;;;4940925;28;20066;-77
2022/12/27 08:44:29;;;;;;;5.57;1.80;;;;;;;;;;4935993;29;20741;-77
2022/12/27 08:46:56;;;;;;;2.60;1.30;;;;;;;;;;4951782;29;20085;-78
2022/12/27 08:49:23;;;;;;;3.33;1.70;;;;;;;;;;4928534;29;20070;-77
2022/12/27 08:51:50;;;;;;;4.57;1.75;;;;;;;;;;4960062;28;20059;-77
2022/12/27 08:54:17;;;;;;;5.60;1.63;;;;;;;;;;4958368;28;20531;-77
2022/12/27 08:56:44;;;;;;;3.53;1.42;;;;;;;;;;4948362;29;20154;-77
2022/12/27 08:59:11;;;;;;;5.60;1.75;;;;;;;;;;4959468;28;20055;-74
2022/12/27 09:01:41;;;;;;;3.95;1.67;;;;;;;;;;4936418;28;20066;-77
2022/12/27 09:04:08;;;;;;;3.42;1.50;;;;;;;;;;4951524;29;20058;-77
2022/12/27 09:06:35;;;;;;;4.38;1.50;;;;;;;;;;4953188;28;20067;-77
2022/12/27 09:09:02;;;;;;;5.18;1.65;;;;;;;;;;4951579;29;20058;-78
2022/12/27 09:11:31;;;;;;;9.98;1.70;;;;;;;;;;4944905;29;20532;-77
2022/12/27 09:14:00;;;;;;;3.30;1.60;;;;;;;;;;4936097;29;20060;-76
2022/12/27 09:16:28;;;;;;;3.90;2.00;;;;;;;;;;4929531;29;20125;-77
2022/12/27 09:18:56;;;;;;;6.65;1.88;;;;;;;;;;4919514;29;20051;-77
2022/12/27 09:21:25;;;;;;;3.47;1.73;;;;;;;;;;4919248;28;20105;-76
2022/12/27 09:23:52;;;;;;;4.30;1.65;;;;;;;;;;4950913;28;20077;-78
2022/12/27 09:26:21;;;;;;;6.22;2.88;;;;;;;;;;4934805;29;20050;-77
2022/12/27 09:28:48;;;;;;;6.13;1.80;;;;;;;;;;4941451;29;20473;-77
2022/12/27 09:31:16;;;;;;;5.72;2.10;;;;;;;;;;4936741;29;20055;-78
2022/12/27 09:33:43;;;;;;;2.50;1.90;;;;;;;;;;4941848;28;20056;-78
2022/12/27 09:36:12;;;;;;;4.95;1.80;;;;;;;;;;4935612;29;20069;-77
2022/12/27 09:38:39;;;;;;;2.63;1.67;;;;;;;;;;4943326;28;20506;-79
2022/12/27 09:41:17;;;;;;;3.47;1.83;;;;;;;;;;4922538;29;20051;-77
2022/12/27 09:44:23;;;;;;;3.33;1.60;;;;;;;;;;4938577;29;20575;-78
2022/12/27 09:47:08;;;;;;;2.92;1.45;;;;;;;;;;4951086;28;20062;-78
2022/12/27 09:49:47;;;;;;;6.53;1.80;;;;;;;;;;4958353;28;20407;-79
2022/12/27 09:52:26;;;;;;;3.65;1.75;;;;;;;;;;4919041;29;20094;-77
2022/12/27 09:55:01;;;;;;;3.05;1.30;;;;;;;;;;4938539;29;20052;-77
2022/12/27 09:57:42;;;;;;;3.08;1.48;;;;;;;;;;4965040;28;20043;-78
2022/12/27 10:00:13;;;;;;;4.35;3.00;;;;;;;;;;4939773;29;20499;-76
2022/12/27 10:02:43;;;;;;;5.60;2.67;;;;;;;;;;4949849;28;20063;-77
2022/12/27 10:05:18;;;;;;;2.92;2.30;;;;;;;;;;4958202;28;20059;-77
2022/12/27 10:07:47;;;;;;;6.45;3.03;;;;;;;;;;4934941;29;20587;-77
2022/12/27 10:10:18;;;;;;;6.05;2.15;;;;;;;;;;4946831;29;20062;-77
2022/12/27 10:13:12;;;;;;;2.45;1.42;;;;;;;;;;4942923;28;20059;-77
2022/12/27 10:16:07;;;;;;;3.60;1.55;;;;;;;;;;4950342;29;20057;-77
2022/12/27 10:18:42;;;;;;;3.35;1.30;;;;;;;;;;4952736;28;20060;-77
2022/12/27 10:21:19;;;;;;;3.58;1.67;;;;;;;;;;4949793;29;20093;-77
2022/12/27 10:23:55;;;;;;;4.85;1.77;;;;;;;;;;4934226;29;20043;-77
2022/12/27 10:26:25;;;;;;;3.53;1.55;;;;;;;;;;4928362;28;20147;-76
2022/12/27 10:28:57;;;;;;;4.50;1.48;;;;;;;;;;4933245;29;20071;-77
2022/12/27 10:31:24;;;;;;;2.67;1.30;;;;;;;;;;4938146;29;20055;-76
2022/12/27 10:33:51;;;;;;;3.40;1.40;;;;;;;;;;4936142;29;20150;-77
2022/12/27 10:36:23;;;;;;;5.82;1.60;;;;;;;;;;4949548;29;20089;-77
2022/12/27 10:38:50;;;;;;;2.28;1.35;;;;;;;;;;4917213;29;20066;-77
2022/12/27 10:41:32;;;;;;;3.47;1.40;;;;;;;;;;4957678;28;20656;-77
2022/12/27 10:43:58;;;;;;;4.95;1.33;;;;;;;;;;4961758;28;20451;-76
2022/12/27 10:46:30;;;;;;;2.42;1.52;;;;;;;;;;4948618;29;20055;-76
2022/12/27 10:49:01;;;;;;;3.38;2.00;;;;;;;;;;4927197;29;20397;-77
2022/12/27 10:51:50;;;;;;;4.80;1.50;;;;;;;;;;4958171;28;20094;-77
2022/12/27 10:54:23;;;;;;;4.13;1.50;;;;;;;;;;4939603;29;20168;-76
2022/12/27 10:56:50;;;;;;;7.57;2.35;;;;;;;;;;4954980;28;20060;-77
2022/12/27 10:59:22;;;;;;;4.30;1.90;;;;;;;;;;4921938;29;20060;-76
2022/12/27 11:01:58;;;;;;;6.10;2.50;;;;;;;;;;4938727;28;20061;-76
2022/12/27 11:04:26;;;;;;;5.80;2.05;;;;;;;;;;4952135;28;20052;-76
2022/12/27 11:07:15;;;;;;;3.53;1.50;;;;;;;;;;4932643;29;20624;-76
2022/12/27 11:09:43;;;;;;;4.53;1.33;;;;;;;;;;4933546;29;20048;-77
2022/12/27 11:12:31;;;;;;;2.08;1.20;;;;;;;;;;4939794;28;20062;-76
2022/12/27 11:15:02;;;;;;;4.05;1.30;;;;;;;;;;4940745;28;20063;-77
2022/12/27 11:17:39;;;;;;;3.92;1.60;;;;;;;;;;4940849;29;20047;-77
2022/12/27 11:20:22;;;;;;;2.20;0.98;;;;;;;;;;4933841;29;20047;-77
2022/12/27 11:22:49;;;;;;;4.13;1.40;;;;;;;;;;4931573;29;20043;-77
2022/12/27 11:25:16;;;;;;;3.15;1.58;;;;;;;;;;4952855;28;20330;-77
2022/12/27 11:27:47;;;;;;;4.72;1.60;;;;;;;;;;4950782;29;20063;-77
2022/12/27 11:30:30;;;;;;;2.08;1.40;;;;;;;;;;4941238;29;20059;-77
2022/12/27 11:33:00;;;;;;;3.25;1.20;;;;;;;;;;4941256;28;20052;-76
2022/12/27 11:35:27;;;;;;;3.40;1.50;;;;;;;;;;4933889;29;20055;-76
2022/12/27 11:37:54;;;;;;;3.75;1.40;;;;;;;;;;4942605;29;20063;-76
2022/12/27 11:40:22;;;;;;;3.65;1.48;;;;;;;;;;4918365;29;20086;-76
2022/12/27 11:42:57;;;;;;;3.50;1.70;;;;;;;;;;4941219;28;20043;-77
2022/12/27 11:45:27;;;;;;;2.08;1.15;;;;;;;;;;4953149;28;20085;-77
2022/12/27 11:47:57;;;;;;;3.88;1.20;;;;;;;;;;4921012;29;20066;-77
2022/12/27 11:50:27;;;;;;;5.30;1.40;;;;;;;;;;4959357;28;20058;-77
2022/12/27 11:53:06;;;;;;;4.93;1.40;;;;;;;;;;4964247;28;20469;-77
2022/12/27 11:55:39;;;;;;;4.68;1.25;;;;;;;;;;4969839;28;20526;-77
2022/12/27 11:58:24;;;;;;;;;;;;;;;;;;4959822;28;20419;-78
2022/12/27 12:00:59;;;;;;;2.05;0.80;;;;;;;;;;4953122;29;19926;-77
2022/12/27 12:03:45;;;;;;;2.70;1.05;;;;;;;;;;4961025;28;20059;-77
2022/12/27 12:06:16;;;;;;;4.03;1.23;;;;;;;;;;4965549;28;20152;-77
2022/12/27 12:09:28;;;;;;;4.57;1.92;;;;;;;;;;4929764;29;20075;-77
2022/12/27 12:12:23;;;;;;;2.92;1.17;;;;;;;;;;4962520;28;20055;-77
2022/12/27 12:15:12;;;;;;;3.70;0.90;;;;;;;;;;4954860;29;20500;-79
2022/12/27 12:17:54;;;;;;;2.22;0.90;;;;;;;;;;4962847;28;20051;-79
2022/12/27 12:20:33;;;;;;;1.25;0.80;;;;;;;;;;4954145;29;20051;-79
2022/12/27 12:23:13;;;;;;;2.55;1.10;;;;;;;;;;4958752;28;20081;-78
2022/12/27 12:25:59;;;;;;;4.07;0.90;;;;;;;;;;4950407;29;20126;-79
2022/12/27 12:28:32;;;;;;;2.90;0.93;;;;;;;;;;4930556;28;20046;-79
2022/12/27 12:31:18;;;;;;;1.25;0.57;;;;;;;;;;4951376;29;20051;-78
2022/12/27 12:34:01;;;;;;;1.70;0.93;;;;;;;;;;4962441;28;20058;-77
2022/12/27 12:36:49;;;;;;;2.08;0.77;;;;;;;;;;4957007;28;20059;-77
2022/12/27 12:39:36;;;;;;;2.70;0.82;;;;;;;;;;4957450;28;20058;-78
2022/12/27 12:42:17;;;;;;;4.38;0.80;;;;;;;;;;4835832;29;197851;-77
2022/12/27 12:45:33;;;;;;;2.42;0.93;;;;;;;;;;4892698;29;20044;-77
2022/12/27 12:48:22;;;;;;;3.90;0.90;;;;;;;;;;4859313;29;20556;-77
2022/12/27 12:51:14;;;;;;;2.92;0.70;;;;;;;;;;4927189;29;20488;-77
2022/12/27 12:54:12;;;;;;;3.58;1.00;;;;;;;;;;4919723;29;20056;-77
2022/12/27 12:57:03;;;;;;;4.97;2.00;;;;;;;;;;4919867;29;20048;-77
2022/12/27 12:59:54;;;;;;;5.05;1.00;;;;;;;;;;4920595;29;20052;-76
2022/12/27 13:02:40;;;;;;;3.25;1.10;;;;;;;;;;4916299;29;20419;-80
2022/12/27 13:05:17;;;;;;;12.98;1.75;;;;;;;;;;4915833;29;20059;-77
2022/12/27 13:07:51;;;;;;;3.67;1.40;;;;;;;;;;4915615;29;20055;-77
2022/12/27 13:10:59;;;;;;;10.80;5.30;;;;;;;;;;4894538;29;20063;-77
2022/12/27 13:14:01;;;;;;;7.18;3.92;;;;;;;;;;4884075;29;20127;-77
2022/12/27 13:16:44;;;;;;;2.65;1.38;;;;;;;;;;4869429;29;20058;-77
2022/12/27 13:19:33;;;;;;;2.53;1.20;;;;;;;;;;4909185;29;20079;-77
2022/12/27 13:22:12;;;;;;;2.53;0.85;;;;;;;;;;4931793;29;20051;-77
2022/12/27 13:24:41;;;;;;;3.22;1.23;;;;;;;;;;4937532;29;20051;-77
2022/12/27 13:27:15;;;;;;;2.20;0.98;;;;;;;;;;4936681;29;20545;-77
2022/12/27 13:29:56;;;;;;;4.95;1.23;;;;;;;;;;4892787;29;20138;-77
2022/12/27 13:32:44;;;;;;;4.85;1.50;;;;;;;;;;4904384;29;20071;-77
2022/12/27 13:35:20;;;;;;;4.28;1.85;;;;;;;;;;4912509;29;20062;-76
2022/12/27 13:38:06;;;;;;;3.45;1.70;;;;;;;;;;4949272;29;20158;-77
2022/12/27 13:40:33;;;;;;;2.85;1.50;;;;;;;;;;4926113;29;20079;-77
2022/12/27 13:43:14;;;;;;;5.43;1.23;;;;;;;;;;4918022;29;20106;-77
2022/12/27 13:45:45;;;;;;;4.43;1.05;;;;;;;;;;4901969;29;20592;-77
2022/12/27 13:48:33;;;;;;;2.45;1.10;;;;;;;;;;4917039;29;20113;-77
2022/12/27 13:51:35;;;;;;;5.25;0.80;;;;;;;;;;4914137;29;20135;-77
2022/12/27 13:54:40;;;;;;;5.47;1.45;;;;;;;;;;4906399;29;20056;-76
2022/12/27 13:57:19;;;;;;;4.65;1.38;;;;;;;;;;4927218;29;20067;-77
2022/12/27 14:00:09;;;;;;;5.15;1.40;;;;;;;;;;4942268;29;20060;-78
2022/12/27 14:03:06;;;;;;;4.15;1.30;;;;;;;;;;4920998;29;20059;-78
2022/12/27 14:05:54;;;;;;;5.95;1.45;;;;;;;;;;4927921;29;20081;-76
2022/12/27 14:08:40;;;;;;;2.30;0.98;;;;;;;;;;4924906;29;20087;-77
2022/12/27 14:11:28;;;;;;;4.90;1.20;;;;;;;;;;4924354;29;20055;-77
2022/12/27 14:13:55;;;;;;;3.05;1.30;;;;;;;;;;4924064;29;20067;-76
2022/12/27 14:16:37;;;;;;;2.88;0.90;;;;;;;;;;4903359;29;20055;-77
2022/12/27 14:19:31;;;;;;;3.97;1.20;;;;;;;;;;4899046;29;20063;-77
2022/12/27 14:21:58;;;;;;;5.30;1.02;;;;;;;;;;4904097;29;20083;-77
2022/12/27 14:24:56;;;;;;;5.60;1.45;;;;;;;;;;4933268;29;20064;-77
2022/12/27 14:28:00;;;;;;;4.90;2.20;;;;;;;;;;4933351;29;20059;-77
2022/12/27 14:31:02;;;;;;;2.08;1.20;;;;;;;;;;4919022;29;20071;-77
2022/12/27 14:33:38;;;;;;;5.53;1.98;;;;;;;;;;4906121;29;20134;-77
2022/12/27 14:36:42;;;;;;;6.28;1.60;;;;;;;;;;4918052;29;20070;-77
2022/12/27 14:39:14;;;;;;;5.85;1.90;;;;;;;;;;4916920;29;20151;-78
2022/12/27 14:42:16;;;;;;;8.60;1.50;;;;;;;;;;4933853;29;20134;-77
2022/12/27 14:45:11;;;;;;;3.03;1.40;;;;;;;;;;4920149;29;20051;-76
2022/12/27 14:47:53;;;;;;;3.97;1.27;;;;;;;;;;4933511;29;20063;-78
2022/12/27 14:50:54;;;;;;;5.78;1.00;;;;;;;;;;4920282;29;20083;-75
2022/12/27 14:53:36;;;;;;;1.98;1.20;;;;;;;;;;4916277;29;20515;-76
2022/12/27 14:56:40;;;;;;;3.13;0.90;;;;;;;;;;4915976;29;20478;-76
2022/12/27 14:59:22;;;;;;;2.88;0.90;;;;;;;;;;4932812;29;20536;-78
2022/12/27 15:01:55;;;;;;;4.10;1.77;;;;;;;;;;4916866;29;20062;-77
2022/12/27 15:04:42;;;;;;;6.68;3.03;;;;;;;;;;4916575;29;20063;-76
2022/12/27 15:07:17;;;;;;;7.63;3.55;;;;;;;;;;4900587;29;20593;-77
2022/12/27 15:10:18;;;;;;;18.05;8.60;;;;;;;;;;4915947;29;20047;-76
2022/12/27 15:12:49;;;;;;;12.10;4.75;;;;;;;;;;4932192;29;20075;-76
2022/12/27 15:15:58;;;;;;;3.95;2.40;;;;;;;;;;4932398;29;20083;-76
2022/12/27 15:18:46;;;;;;;4.88;1.77;;;;;;;;;;4909137;29;20070;-76
2022/12/27 15:21:29;;;;;;;7.10;1.70;;;;;;;;;;4920638;29;20317;-78
2022/12/27 15:24:05;;;;;;;4.20;1.10;;;;;;;;;;4925107;29;20064;-76
2022/12/27 15:26:45;;;;;;;4.18;0.80;;;;;;;;;;4905420;29;20538;-77
2022/12/27 15:29:34;;;;;;;5.65;1.52;;;;;;;;;;4901594;29;20689;-78
2022/12/27 15:32:04;;;;;;;6.72;1.20;;;;;;;;;;4916881;29;20064;-76
2022/12/27 15:35:08;;;;;;;3.53;1.02;;;;;;;;;;4900964;29;20389;-77
2022/12/27 15:37:46;;;;;;;;;;;;;;;;;;4916841;29;20056;-77
2022/12/27 15:40:24;;;;;;;3.97;1.77;;;;;;;;;;4929717;29;19923;-77
2022/12/27 15:42:55;;;;;;;3.90;1.98;;;;;;;;;;4900762;29;20063;-76
2022/12/27 15:45:43;;;;;;;3.17;1.50;;;;;;;;;;4912168;29;20052;-75
2022/12/27 15:48:37;;;;;;;7.63;3.10;;;;;;;;;;4914129;29;20425;-74
2022/12/27 15:51:32;;;;;;;7.50;2.45;;;;;;;;;;4918738;29;20063;-74
2022/12/27 15:54:20;;;;;;;3.75;1.80;;;;;;;;;;4925840;29;20048;-74
2022/12/27 15:56:56;;;;;;;5.13;1.27;;;;;;;;;;4898103;29;20063;-73
2022/12/27 15:59:44;;;;;;;6.32;1.10;;;;;;;;;;4922938;29;20070;-76
2022/12/27 16:02:51;;;;;;;4.38;1.50;;;;;;;;;;4923099;29;20055;-76
2022/12/27 16:05:19;;;;;;;9.63;2.20;;;;;;;;;;4888202;29;20045;-75
2022/12/27 16:07:47;;;;;;;1.95;1.08;;;;;;;;;;4878441;29;20052;-76
2022/12/27 16:10:34;;;;;;;4.82;1.65;;;;;;;;;;4877376;29;20074;-76
2022/12/27 16:13:10;;;;;;;6.18;1.77;;;;;;;;;;4919913;29;20138;-76
2022/12/27 16:15:46;;;;;;;3.70;1.60;;;;;;;;;;4929039;29;20051;-77
2022/12/27 16:18:22;;;;;;;4.90;2.05;;;;;;;;;;4933049;29;20059;-73
2022/12/27 16:21:10;;;;;;;4.38;1.63;;;;;;;;;;4916094;29;20109;-73
2022/12/27 16:23:40;;;;;;;3.78;2.08;;;;;;;;;;4907833;29;20059;-74
2022/12/27 16:26:21;;;;;;;6.88;2.45;;;;;;;;;;4933548;29;20424;-73
2022/12/27 16:29:00;;;;;;;6.75;2.85;;;;;;;;;;4899605;29;20079;-74
2022/12/27 16:31:29;;;;;;;6.88;3.28;;;;;;;;;;4889154;29;20492;-75
2022/12/27 16:33:56;;;;;;;6.65;3.17;;;;;;;;;;4901450;29;20059;-76
2022/12/27 16:36:30;;;;;;;6.72;2.92;;;;;;;;;;4886456;29;20063;-76
2022/12/27 16:39:18;;;;;;;7.65;3.47;;;;;;;;;;4916083;29;20063;-75
2022/12/27 16:41:54;;;;;;;16.33;4.38;;;;;;;;;;4929416;29;20059;-74
2022/12/27 16:44:24;;;;;;;7.55;3.40;;;;;;;;;;4921377;29;20498;-75
2022/12/27 16:47:28;;;;;;;9.48;3.63;;;;;;;;;;4915881;29;20056;-74
2022/12/27 16:50:20;;;;;;;9.55;4.20;;;;;;;;;;4921838;29;20055;-76
2022/12/27 16:53:02;;;;;;;7.30;4.28;;;;;;;;;;4916598;29;20059;-74
2022/12/27 16:56:01;;;;;;;8.57;3.83;;;;;;;;;;4917359;29;20051;-77
2022/12/27 16:58:28;;;;;;;8.38;4.28;;;;;;;;;;4901820;29;20047;-77
2022/12/27 17:00:56;;;;;;;7.43;4.38;;;;;;;;;;4916474;29;20090;-77